Terminal Aerodrome Forecast
Issued by NWS Wilmington, OH

Current Version | Previous Version | Text Only | Print | Product List | Glossary On
Versions: 1 2 3 4 5 6 7 8 9 10 11 12 13 14 15 16 17 18 19 20 21 22 23 24 25 26
000 FTUS41 KILN 012300 TAFDAY TAF KDAY 012336Z 0200/0224 VRB03KT P6SM SKC FM021100 16006KT P6SM SCT060 BKN250 FM021500 19009G16KT P6SM SCT060 BKN200 FM022200 16007KT P6SM SCT050 BKN200=

USA.gov is the U.S. government's official web portal to all federal, state and local government web resources and services.